Skip Navigation Links Skip Navigation Links

Current Weather

Lar, Iran

For information only: do not use for flight planning or navigation.
Latest weather
Observation time Tuesday, October 19, 2021 11:30 AM +0330
Local time Tuesday, October 19, 2021 11:55 AM +0330
Flight conditions Visual Meteorological Conditions
Winds
Wind direction North-Northeast (30°)
Wind speed 5 mph
Visibility 6.2 mi.
Sky condition
Ceiling unlimited
Sky clear
Temperature 90°F
Dewpoint 45°F
Altimeter 29.91 in.Hg
Derived measurements
Relative humidity 21%
Heat index 90°F
Density altitude 4695 ft.
Remarks
Ceiling and visibility OK.
No significant changes expected in the next two hours.
METAR OISL 190800Z 03004KT CAVOK 32/07 Q1013 A2992 NOSIG

Settings

Location code

InnerDrive.Weather 4.0.6770.0 Release CLR 4.0.30319.42000
Copyright ©2018 Inner Drive Technology. All rights reserved. Portions Copyright ©1986-2018 David Braverman.

Find weather

Site navigation


Skip Navigation Links

Place info

Page info

PayPal - The safer, easier way to pay online!

Return home.

Copyright ©2021 Inner Drive Technology. Purveyors of fine, hand-crafted computer software. Page printed 2021-10-19T08:25:35 UTC.